sensor_id;sensor_type;location;lat;lon;timestamp;pressure;altitude;pressure_sealevel;temperature;humidity
27210;BME280;14721;42.668;23.386;2022-09-27T00:02:04;94354.66;;;15.52;100.00
27210;BME280;14721;42.668;23.386;2022-09-27T00:04:29;94360.06;;;15.52;100.00
27210;BME280;14721;42.668;23.386;2022-09-27T00:06:55;94363.41;;;15.46;100.00
27210;BME280;14721;42.668;23.386;2022-09-27T00:09:20;94356.84;;;15.48;100.00
27210;BME280;14721;42.668;23.386;2022-09-27T00:11:45;94341.19;;;15.44;100.00
27210;BME280;14721;42.668;23.386;2022-09-27T00:14:13;94324.72;;;15.39;100.00
27210;BME280;14721;42.668;23.386;2022-09-27T00:16:40;94347.03;;;15.31;100.00
27210;BME280;14721;42.668;23.386;2022-09-27T00:19:10;94346.53;;;15.28;100.00
27210;BME280;14721;42.668;23.386;2022-09-27T00:21:36;94328.66;;;15.10;100.00
27210;BME280;14721;42.668;23.386;2022-09-27T00:24:02;94358.28;;;15.19;100.00
27210;BME280;14721;42.668;23.386;2022-09-27T00:26:28;94358.13;;;15.20;100.00
27210;BME280;14721;42.668;23.386;2022-09-27T00:28:54;94363.97;;;15.16;100.00
27210;BME280;14721;42.668;23.386;2022-09-27T00:31:24;94366.84;;;15.14;100.00
27210;BME280;14721;42.668;23.386;2022-09-27T00:33:52;94360.09;;;15.18;100.00
27210;BME280;14721;42.668;23.386;2022-09-27T00:36:18;94368.50;;;15.15;100.00
27210;BME280;14721;42.668;23.386;2022-09-27T00:38:45;94366.84;;;15.14;100.00
27210;BME280;14721;42.668;23.386;2022-09-27T00:41:16;94363.28;;;15.05;100.00
27210;BME280;14721;42.668;23.386;2022-09-27T00:43:49;94339.53;;;14.93;100.00
27210;BME280;14721;42.668;23.386;2022-09-27T00:46:26;94340.34;;;14.85;100.00
27210;BME280;14721;42.668;23.386;2022-09-27T00:49:24;94360.34;;;14.83;100.00
27210;BME280;14721;42.668;23.386;2022-09-27T00:51:57;94363.88;;;14.83;100.00
27210;BME280;14721;42.668;23.386;2022-09-27T00:54:28;94354.00;;;14.92;100.00
27210;BME280;14721;42.668;23.386;2022-09-27T00:56:55;94352.63;;;14.80;100.00
27210;BME280;14721;42.668;23.386;2022-09-27T00:59:26;94345.53;;;14.79;100.00
27210;BME280;14721;42.668;23.386;2022-09-27T01:01:55;94344.53;;;14.80;100.00
27210;BME280;14721;42.668;23.386;2022-09-27T01:04:25;94322.78;;;14.57;100.00
27210;BME280;14721;42.668;23.386;2022-09-27T01:06:51;94362.13;;;14.66;100.00
27210;BME280;14721;42.668;23.386;2022-09-27T01:09:19;94348.03;;;14.72;100.00
27210;BME280;14721;42.668;23.386;2022-09-27T01:22:24;94315.69;;;14.56;100.00
27210;BME280;14721;42.668;23.386;2022-09-27T01:46:55;94319.34;;;14.47;100.00
27210;BME280;14721;42.668;23.386;2022-09-27T01:49:31;94289.94;;;14.38;100.00
27210;BME280;14721;42.668;23.386;2022-09-27T01:52:04;94333.44;;;14.41;100.00
27210;BME280;14721;42.668;23.386;2022-09-27T01:54:43;94329.13;;;14.48;100.00
27210;BME280;14721;42.668;23.386;2022-09-27T01:57:12;94314.19;;;14.54;100.00
27210;BME280;14721;42.668;23.386;2022-09-27T01:59:55;94329.50;;;14.61;100.00
27210;BME280;14721;42.668;23.386;2022-09-27T02:02:25;94309.66;;;14.54;100.00
27210;BME280;14721;42.668;23.386;2022-09-27T02:04:55;94304.13;;;14.56;100.00
27210;BME280;14721;42.668;23.386;2022-09-27T02:07:29;94321.97;;;14.65;100.00
27210;BME280;14721;42.668;23.386;2022-09-27T02:10:04;94316.94;;;14.70;100.00
27210;BME280;14721;42.668;23.386;2022-09-27T02:12:39;94315.25;;;14.69;100.00
27210;BME280;14721;42.668;23.386;2022-09-27T02:15:09;94287.88;;;14.73;100.00
27210;BME280;14721;42.668;23.386;2022-09-27T02:23:00;94262.22;;;14.37;100.00
27210;BME280;14721;42.668;23.386;2022-09-27T02:25:35;94295.53;;;14.52;100.00
27210;BME280;14721;42.668;23.386;2022-09-27T02:28:16;94276.59;;;14.62;100.00
27210;BME280;14721;42.668;23.386;2022-09-27T02:30:47;94257.94;;;14.60;100.00
27210;BME280;14721;42.668;23.386;2022-09-27T02:33:12;94262.63;;;14.58;100.00
27210;BME280;14721;42.668;23.386;2022-09-27T02:35:38;94268.84;;;14.59;100.00
27210;BME280;14721;42.668;23.386;2022-09-27T02:38:05;94244.81;;;14.65;100.00
27210;BME280;14721;42.668;23.386;2022-09-27T02:40:34;94237.28;;;14.69;100.00
27210;BME280;14721;42.668;23.386;2022-09-27T02:43:04;94218.59;;;14.59;100.00
27210;BME280;14721;42.668;23.386;2022-09-27T02:45:41;94215.91;;;14.51;100.00
27210;BME280;14721;42.668;23.386;2022-09-27T02:48:19;94230.03;;;14.61;100.00
27210;BME280;14721;42.668;23.386;2022-09-27T02:50:59;94234.06;;;14.65;100.00
27210;BME280;14721;42.668;23.386;2022-09-27T03:05:08;94248.72;;;14.71;100.00
27210;BME280;14721;42.668;23.386;2022-09-27T03:07:35;94252.06;;;14.73;100.00
27210;BME280;14721;42.668;23.386;2022-09-27T03:10:03;94219.97;;;14.63;100.00
27210;BME280;14721;42.668;23.386;2022-09-27T03:12:29;94208.03;;;14.66;100.00
27210;BME280;14721;42.668;23.386;2022-09-27T03:14:58;94196.28;;;14.59;100.00
27210;BME280;14721;42.668;23.386;2022-09-27T03:17:24;94208.50;;;14.45;100.00
27210;BME280;14721;42.668;23.386;2022-09-27T03:19:51;94203.47;;;14.50;100.00
27210;BME280;14721;42.668;23.386;2022-09-27T03:22:17;94190.06;;;14.58;100.00
27210;BME280;14721;42.668;23.386;2022-09-27T03:24:44;94185.16;;;14.54;100.00
27210;BME280;14721;42.668;23.386;2022-09-27T03:27:10;94163.63;;;14.46;100.00
27210;BME280;14721;42.668;23.386;2022-09-27T03:29:36;94159.28;;;14.45;100.00
27210;BME280;14721;42.668;23.386;2022-09-27T03:32:02;94168.69;;;14.49;100.00
27210;BME280;14721;42.668;23.386;2022-09-27T03:34:28;94167.38;;;14.53;100.00
27210;BME280;14721;42.668;23.386;2022-09-27T03:36:54;94182.50;;;14.62;100.00
27210;BME280;14721;42.668;23.386;2022-09-27T03:39:20;94192.44;;;14.69;100.00
27210;BME280;14721;42.668;23.386;2022-09-27T03:41:46;94188.91;;;14.77;100.00
27210;BME280;14721;42.668;23.386;2022-09-27T03:44:11;94169.59;;;14.81;100.00
27210;BME280;14721;42.668;23.386;2022-09-27T03:46:38;94173.09;;;14.82;100.00
27210;BME280;14721;42.668;23.386;2022-09-27T03:49:03;94170.75;;;14.87;100.00
27210;BME280;14721;42.668;23.386;2022-09-27T03:51:29;94169.25;;;14.84;100.00
27210;BME280;14721;42.668;23.386;2022-09-27T03:53:55;94178.47;;;14.82;100.00
27210;BME280;14721;42.668;23.386;2022-09-27T03:56:22;94180.34;;;14.81;100.00
27210;BME280;14721;42.668;23.386;2022-09-27T03:58:47;94194.13;;;14.78;100.00
27210;BME280;14721;42.668;23.386;2022-09-27T04:01:14;94183.53;;;14.85;100.00
27210;BME280;14721;42.668;23.386;2022-09-27T04:03:40;94191.44;;;14.86;100.00
27210;BME280;14721;42.668;23.386;2022-09-27T04:06:06;94162.19;;;14.75;100.00
27210;BME280;14721;42.668;23.386;2022-09-27T04:08:32;94169.91;;;14.86;100.00
27210;BME280;14721;42.668;23.386;2022-09-27T04:10:58;94182.84;;;14.91;100.00
27210;BME280;14721;42.668;23.386;2022-09-27T04:13:24;94176.81;;;14.97;100.00
27210;BME280;14721;42.668;23.386;2022-09-27T04:15:49;94185.03;;;14.95;100.00
27210;BME280;14721;42.668;23.386;2022-09-27T04:18:16;94179.34;;;14.98;100.00
27210;BME280;14721;42.668;23.386;2022-09-27T04:20:41;94176.16;;;14.95;100.00
27210;BME280;14721;42.668;23.386;2022-09-27T04:23:07;94180.19;;;14.99;100.00
27210;BME280;14721;42.668;23.386;2022-09-27T04:25:33;94164.56;;;14.94;100.00
27210;BME280;14721;42.668;23.386;2022-09-27T04:27:59;94167.41;;;15.01;100.00
27210;BME280;14721;42.668;23.386;2022-09-27T04:30:26;94175.66;;;14.99;100.00
27210;BME280;14721;42.668;23.386;2022-09-27T04:32:53;94175.63;;;15.07;100.00
27210;BME280;14721;42.668;23.386;2022-09-27T04:35:18;94178.84;;;15.11;100.00
27210;BME280;14721;42.668;23.386;2022-09-27T04:38:02;94190.97;;;15.07;100.00
27210;BME280;14721;42.668;23.386;2022-09-27T04:40:29;94188.41;;;15.13;100.00
27210;BME280;14721;42.668;23.386;2022-09-27T04:42:58;94193.78;;;15.13;100.00
27210;BME280;14721;42.668;23.386;2022-09-27T04:45:24;94182.19;;;15.21;100.00
27210;BME280;14721;42.668;23.386;2022-09-27T04:47:50;94164.72;;;15.17;100.00
27210;BME280;14721;42.668;23.386;2022-09-27T04:50:17;94185.72;;;15.13;100.00
27210;BME280;14721;42.668;23.386;2022-09-27T04:52:42;94164.38;;;14.96;100.00
27210;BME280;14721;42.668;23.386;2022-09-27T04:55:09;94209.59;;;15.00;100.00
27210;BME280;14721;42.668;23.386;2022-09-27T04:57:36;94208.94;;;15.06;100.00
27210;BME280;14721;42.668;23.386;2022-09-27T05:00:02;94208.28;;;15.13;100.00
27210;BME280;14721;42.668;23.386;2022-09-27T05:02:28;94210.97;;;15.21;100.00
27210;BME280;14721;42.668;23.386;2022-09-27T05:04:55;94207.78;;;15.25;100.00
27210;BME280;14721;42.668;23.386;2022-09-27T05:07:24;94201.88;;;15.22;100.00
27210;BME280;14721;42.668;23.386;2022-09-27T05:09:50;94198.84;;;15.25;100.00
27210;BME280;14721;42.668;23.386;2022-09-27T05:12:16;94190.25;;;15.21;100.00
27210;BME280;14721;42.668;23.386;2022-09-27T05:14:41;94188.44;;;15.22;100.00
27210;BME280;14721;42.668;23.386;2022-09-27T05:17:07;94170.09;;;15.17;100.00
27210;BME280;14721;42.668;23.386;2022-09-27T05:19:34;94172.47;;;15.04;100.00
27210;BME280;14721;42.668;23.386;2022-09-27T05:22:00;94194.47;;;14.91;100.00
27210;BME280;14721;42.668;23.386;2022-09-27T05:24:26;94189.09;;;15.07;100.00
27210;BME280;14721;42.668;23.386;2022-09-27T05:26:53;94181.19;;;15.14;100.00
27210;BME280;14721;42.668;23.386;2022-09-27T05:29:19;94182.56;;;15.10;100.00
27210;BME280;14721;42.668;23.386;2022-09-27T05:31:45;94182.22;;;15.13;100.00
27210;BME280;14721;42.668;23.386;2022-09-27T05:34:12;94170.44;;;15.22;100.00
27210;BME280;14721;42.668;23.386;2022-09-27T05:36:38;94164.22;;;15.22;100.00
27210;BME280;14721;42.668;23.386;2022-09-27T05:39:07;94153.78;;;15.19;100.00
27210;BME280;14721;42.668;23.386;2022-09-27T05:41:35;94182.06;;;15.39;100.00
27210;BME280;14721;42.668;23.386;2022-09-27T05:44:01;94193.13;;;15.44;100.00
27210;BME280;14721;42.668;23.386;2022-09-27T05:46:26;94198.00;;;15.48;100.00
27210;BME280;14721;42.668;23.386;2022-09-27T05:48:52;94198.00;;;15.48;100.00
27210;BME280;14721;42.668;23.386;2022-09-27T05:51:18;94193.31;;;15.42;100.00
27210;BME280;14721;42.668;23.386;2022-09-27T05:53:45;94189.44;;;15.21;100.00
27210;BME280;14721;42.668;23.386;2022-09-27T05:56:11;94178.00;;;15.27;100.00
27210;BME280;14721;42.668;23.386;2022-09-27T05:58:36;94185.06;;;15.36;100.00
27210;BME280;14721;42.668;23.386;2022-09-27T06:01:05;94189.78;;;15.42;100.00
27210;BME280;14721;42.668;23.386;2022-09-27T06:03:32;94190.44;;;15.28;100.00
27210;BME280;14721;42.668;23.386;2022-09-27T06:06:01;94178.66;;;15.37;100.00
27210;BME280;14721;42.668;23.386;2022-09-27T06:08:32;94172.44;;;15.36;100.00
27210;BME280;14721;42.668;23.386;2022-09-27T06:11:10;94190.94;;;15.55;100.00
27210;BME280;14721;42.668;23.386;2022-09-27T06:13:39;94190.44;;;15.52;100.00
27210;BME280;14721;42.668;23.386;2022-09-27T06:16:05;94191.09;;;15.54;100.00
27210;BME280;14721;42.668;23.386;2022-09-27T06:18:33;94178.00;;;15.43;100.00
27210;BME280;14721;42.668;23.386;2022-09-27T06:21:03;94190.44;;;15.44;100.00
27210;BME280;14721;42.668;23.386;2022-09-27T06:23:30;94195.50;;;15.47;100.00
27210;BME280;14721;42.668;23.386;2022-09-27T06:26:05;94180.66;;;15.51;100.00
27210;BME280;14721;42.668;23.386;2022-09-27T06:28:32;94162.50;;;15.37;100.00
27210;BME280;14721;42.668;23.386;2022-09-27T06:31:03;94178.34;;;15.24;100.00
27210;BME280;14721;42.668;23.386;2022-09-27T06:33:29;94169.72;;;15.36;100.00
27210;BME280;14721;42.668;23.386;2022-09-27T06:35:55;94173.44;;;15.51;100.00
27210;BME280;14721;42.668;23.386;2022-09-27T06:38:22;94173.63;;;15.50;100.00
27210;BME280;14721;42.668;23.386;2022-09-27T06:40:49;94187.59;;;15.53;100.00
27210;BME280;14721;42.668;23.386;2022-09-27T06:43:16;94192.13;;;15.61;100.00
27210;BME280;14721;42.668;23.386;2022-09-27T06:45:42;94176.94;;;15.60;100.00
27210;BME280;14721;42.668;23.386;2022-09-27T06:48:09;94201.34;;;15.66;100.00
27210;BME280;14721;42.668;23.386;2022-09-27T06:50:38;94197.81;;;15.66;100.00
27210;BME280;14721;42.668;23.386;2022-09-27T06:53:06;94184.72;;;15.55;100.00
27210;BME280;14721;42.668;23.386;2022-09-27T06:55:32;94179.19;;;15.48;100.00
27210;BME280;14721;42.668;23.386;2022-09-27T06:57:59;94185.88;;;15.52;100.00
27210;BME280;14721;42.668;23.386;2022-09-27T07:00:44;94185.53;;;15.63;100.00
27210;BME280;14721;42.668;23.386;2022-09-27T07:03:12;94191.28;;;15.60;100.00
27210;BME280;14721;42.668;23.386;2022-09-27T07:05:39;94185.72;;;15.62;100.00
27210;BME280;14721;42.668;23.386;2022-09-27T07:08:08;94183.19;;;15.60;100.00
27210;BME280;14721;42.668;23.386;2022-09-27T07:10:38;94195.81;;;15.36;100.00
27210;BME280;14721;42.668;23.386;2022-09-27T07:13:06;94187.59;;;15.29;100.00
27210;BME280;14721;42.668;23.386;2022-09-27T07:15:33;94190.94;;;15.31;100.00
27210;BME280;14721;42.668;23.386;2022-09-27T07:18:04;94190.78;;;15.33;100.00
27210;BME280;14721;42.668;23.386;2022-09-27T07:20:31;94177.34;;;15.49;100.00
27210;BME280;14721;42.668;23.386;2022-09-27T07:22:58;94197.97;;;15.64;100.00
27210;BME280;14721;42.668;23.386;2022-09-27T07:25:24;94195.09;;;15.74;100.00
27210;BME280;14721;42.668;23.386;2022-09-27T07:27:51;94190.75;;;15.73;100.00
27210;BME280;14721;42.668;23.386;2022-09-27T07:30:18;94178.44;;;15.70;100.00
27210;BME280;14721;42.668;23.386;2022-09-27T07:32:44;94183.69;;;15.64;100.00
27210;BME280;14721;42.668;23.386;2022-09-27T07:35:11;94184.00;;;15.69;100.00
27210;BME280;14721;42.668;23.386;2022-09-27T07:37:37;94188.53;;;15.76;100.00
27210;BME280;14721;42.668;23.386;2022-09-27T07:40:06;94188.69;;;15.83;100.00
27210;BME280;14721;42.668;23.386;2022-09-27T07:42:34;94180.44;;;15.84;100.00
27210;BME280;14721;42.668;23.386;2022-09-27T07:45:02;94203.47;;;15.95;100.00
27210;BME280;14721;42.668;23.386;2022-09-27T07:47:28;94219.94;;;16.08;100.00
27210;BME280;14721;42.668;23.386;2022-09-27T07:49:54;94219.75;;;16.17;100.00
27210;BME280;14721;42.668;23.386;2022-09-27T07:52:21;94217.84;;;16.26;100.00
27210;BME280;14721;42.668;23.386;2022-09-27T07:54:47;94226.94;;;16.25;100.00
27210;BME280;14721;42.668;23.386;2022-09-27T07:57:13;94210.97;;;16.23;100.00
27210;BME280;14721;42.668;23.386;2022-09-27T07:59:39;94209.81;;;16.18;100.00
27210;BME280;14721;42.668;23.386;2022-09-27T08:02:07;94216.34;;;16.23;100.00
27210;BME280;14721;42.668;23.386;2022-09-27T08:04:36;94214.69;;;16.22;100.00
27210;BME280;14721;42.668;23.386;2022-09-27T08:07:04;94198.69;;;16.21;100.00
27210;BME280;14721;42.668;23.386;2022-09-27T08:09:30;94210.16;;;16.07;100.00
27210;BME280;14721;42.668;23.386;2022-09-27T08:11:56;94192.69;;;16.03;100.00
27210;BME280;14721;42.668;23.386;2022-09-27T08:14:23;94178.72;;;15.99;100.00
27210;BME280;14721;42.668;23.386;2022-09-27T08:16:49;94175.84;;;15.93;100.00
27210;BME280;14721;42.668;23.386;2022-09-27T08:19:16;94175.66;;;16.02;100.00
27210;BME280;14721;42.668;23.386;2022-09-27T08:21:42;94171.94;;;16.11;100.00
27210;BME280;14721;42.668;23.386;2022-09-27T08:24:08;94168.63;;;16.32;100.00
27210;BME280;14721;42.668;23.386;2022-09-27T08:26:33;94181.75;;;16.35;100.00
27210;BME280;14721;42.668;23.386;2022-09-27T08:28:59;94189.50;;;16.46;100.00
27210;BME280;14721;42.668;23.386;2022-09-27T08:31:25;94200.59;;;16.51;100.00
27210;BME280;14721;42.668;23.386;2022-09-27T08:33:51;94197.03;;;16.58;100.00
27210;BME280;14721;42.668;23.386;2022-09-27T08:36:18;94176.41;;;16.65;100.00
27210;BME280;14721;42.668;23.386;2022-09-27T08:38:51;94166.13;;;16.69;100.00
27210;BME280;14721;42.668;23.386;2022-09-27T08:49:26;94150.72;;;17.37;100.00
27210;BME280;14721;42.668;23.386;2022-09-27T08:51:57;94143.34;;;17.54;100.00
27210;BME280;14721;42.668;23.386;2022-09-27T08:54:31;94156.22;;;17.66;100.00
27210;BME280;14721;42.668;23.386;2022-09-27T08:57:07;94169.28;;;17.77;100.00
27210;BME280;14721;42.668;23.386;2022-09-27T08:59:50;94162.84;;;17.93;100.00
27210;BME280;14721;42.668;23.386;2022-09-27T09:02:23;94162.28;;;18.12;100.00
27210;BME280;14721;42.668;23.386;2022-09-27T09:04:53;94151.75;;;18.17;100.00
27210;BME280;14721;42.668;23.386;2022-09-27T09:12:52;94155.75;;;18.86;100.00
27210;BME280;14721;42.668;23.386;2022-09-27T09:15:49;94131.22;;;18.87;100.00
27210;BME280;14721;42.668;23.386;2022-09-27T09:24:35;94143.78;;;19.16;100.00
27210;BME280;14721;42.668;23.386;2022-09-27T09:33:27;94149.56;;;18.70;100.00
27210;BME280;14721;42.668;23.386;2022-09-27T09:38:44;94146.88;;;18.56;100.00
27210;BME280;14721;42.668;23.386;2022-09-27T09:41:19;94145.22;;;18.55;100.00
27210;BME280;14721;42.668;23.386;2022-09-27T09:46:45;94136.16;;;18.62;100.00
27210;BME280;14721;42.668;23.386;2022-09-27T09:49:32;94142.09;;;18.73;100.00
27210;BME280;14721;42.668;23.386;2022-09-27T09:52:10;94110.13;;;18.61;100.00
27210;BME280;14721;42.668;23.386;2022-09-27T09:54:59;94130.50;;;18.79;100.00
27210;BME280;14721;42.668;23.386;2022-09-27T09:57:34;94148.88;;;18.83;100.00
27210;BME280;14721;42.668;23.386;2022-09-27T10:00:17;94146.47;;;18.95;100.00
27210;BME280;14721;42.668;23.386;2022-09-27T10:02:45;94104.34;;;18.86;100.00
27210;BME280;14721;42.668;23.386;2022-09-27T10:05:20;94115.31;;;18.78;100.00
27210;BME280;14721;42.668;23.386;2022-09-27T10:07:49;94141.03;;;18.88;100.00
27210;BME280;14721;42.668;23.386;2022-09-27T10:10:18;94144.44;;;18.97;100.00
27210;BME280;14721;42.668;23.386;2022-09-27T10:12:45;94128.31;;;18.89;100.00
27210;BME280;14721;42.668;23.386;2022-09-27T10:15:17;94122.28;;;18.87;100.00
27210;BME280;14721;42.668;23.386;2022-09-27T10:17:49;94120.34;;;19.02;100.00
27210;BME280;14721;42.668;23.386;2022-09-27T10:20:38;94142.50;;;19.12;100.00
27210;BME280;14721;42.668;23.386;2022-09-27T10:23:18;94124.16;;;19.28;100.00
27210;BME280;14721;42.668;23.386;2022-09-27T10:25:49;94110.88;;;19.33;100.00
27210;BME280;14721;42.668;23.386;2022-09-27T10:28:37;94083.03;;;19.46;100.00
27210;BME280;14721;42.668;23.386;2022-09-27T10:31:10;94080.44;;;19.59;100.00
27210;BME280;14721;42.668;23.386;2022-09-27T10:33:49;94091.75;;;19.96;100.00
27210;BME280;14721;42.668;23.386;2022-09-27T10:36:30;94100.69;;;19.97;99.39
27210;BME280;14721;42.668;23.386;2022-09-27T10:39:04;94122.75;;;19.87;99.16
27210;BME280;14721;42.668;23.386;2022-09-27T10:41:40;94113.31;;;19.77;99.50
27210;BME280;14721;42.668;23.386;2022-09-27T10:46:48;94119.91;;;19.68;100.00
27210;BME280;14721;42.668;23.386;2022-09-27T10:49:25;94136.00;;;19.76;100.00
27210;BME280;14721;42.668;23.386;2022-09-27T10:52:02;94104.59;;;19.88;100.00
27210;BME280;14721;42.668;23.386;2022-09-27T10:54:35;94103.59;;;19.95;100.00
27210;BME280;14721;42.668;23.386;2022-09-27T11:00:23;94081.06;;;19.88;100.00
27210;BME280;14721;42.668;23.386;2022-09-27T11:02:55;94052.63;;;19.44;100.00
27210;BME280;14721;42.668;23.386;2022-09-27T11:07:53;94030.09;;;18.73;100.00
27210;BME280;14721;42.668;23.386;2022-09-27T11:10:34;94045.38;;;18.81;100.00
27210;BME280;14721;42.668;23.386;2022-09-27T11:46:23;94032.72;;;19.98;100.00
27210;BME280;14721;42.668;23.386;2022-09-27T11:55:48;94007.91;;;20.01;94.15
27210;BME280;14721;42.668;23.386;2022-09-27T12:00:53;94004.69;;;20.25;93.14
27210;BME280;14721;42.668;23.386;2022-09-27T12:03:50;93991.19;;;20.45;91.58
27210;BME280;14721;42.668;23.386;2022-09-27T12:06:47;93995.19;;;20.49;90.37
27210;BME280;14721;42.668;23.386;2022-09-27T12:09:41;94017.09;;;20.48;90.76
27210;BME280;14721;42.668;23.386;2022-09-27T12:12:18;93994.97;;;20.57;90.53
27210;BME280;14721;42.668;23.386;2022-09-27T12:14:51;93977.28;;;20.74;88.75
27210;BME280;14721;42.668;23.386;2022-09-27T12:17:28;93979.75;;;20.82;90.10
27210;BME280;14721;42.668;23.386;2022-09-27T12:19:57;93974.38;;;21.08;88.43
27210;BME280;14721;42.668;23.386;2022-09-27T12:22:28;93975.41;;;21.46;87.45
27210;BME280;14721;42.668;23.386;2022-09-27T12:24:55;93968.69;;;21.55;85.20
27210;BME280;14721;42.668;23.386;2022-09-27T12:27:37;93956.56;;;21.51;83.87
27210;BME280;14721;42.668;23.386;2022-09-27T12:30:12;93944.63;;;21.59;83.68
27210;BME280;14721;42.668;23.386;2022-09-27T12:33:04;93929.50;;;21.89;80.92
27210;BME280;14721;42.668;23.386;2022-09-27T12:35:38;93929.41;;;22.08;80.12
27210;BME280;14721;42.668;23.386;2022-09-27T12:41:05;93931.25;;;22.14;78.19
27210;BME280;14721;42.668;23.386;2022-09-27T12:43:32;93918.28;;;22.16;73.61
27210;BME280;14721;42.668;23.386;2022-09-27T12:51:20;93925.66;;;22.09;74.50
27210;BME280;14721;42.668;23.386;2022-09-27T12:57:01;93904.38;;;21.93;75.90
27210;BME280;14721;42.668;23.386;2022-09-27T12:59:43;93897.19;;;22.12;75.93
27210;BME280;14721;42.668;23.386;2022-09-27T13:13:10;93916.66;;;22.78;70.29
27210;BME280;14721;42.668;23.386;2022-09-27T13:15:37;93910.53;;;22.82;70.27
27210;BME280;14721;42.668;23.386;2022-09-27T13:18:28;93911.72;;;22.93;68.01
27210;BME280;14721;42.668;23.386;2022-09-27T13:20:55;93909.03;;;23.11;67.29
27210;BME280;14721;42.668;23.386;2022-09-27T13:25:51;93920.78;;;23.54;64.04
27210;BME280;14721;42.668;23.386;2022-09-27T13:35:22;93892.47;;;24.27;60.36
27210;BME280;14721;42.668;23.386;2022-09-27T13:37:56;93888.44;;;24.30;59.93
27210;BME280;14721;42.668;23.386;2022-09-27T13:40:42;93881.25;;;24.47;59.67
27210;BME280;14721;42.668;23.386;2022-09-27T13:45:57;93903.25;;;24.93;56.61
27210;BME280;14721;42.668;23.386;2022-09-27T13:48:47;93917.69;;;25.11;56.10
27210;BME280;14721;42.668;23.386;2022-09-27T13:51:30;93910.50;;;24.58;63.44
27210;BME280;14721;42.668;23.386;2022-09-27T13:54:01;93921.28;;;24.05;66.96
27210;BME280;14721;42.668;23.386;2022-09-27T13:59:36;93932.13;;;24.12;67.48
27210;BME280;14721;42.668;23.386;2022-09-27T14:02:59;93924.00;;;24.23;64.18
27210;BME280;14721;42.668;23.386;2022-09-27T14:05:33;93904.56;;;24.31;65.19
27210;BME280;14721;42.668;23.386;2022-09-27T14:08:03;93895.13;;;24.16;66.88
27210;BME280;14721;42.668;23.386;2022-09-27T14:10:30;93906.81;;;23.86;67.99
27210;BME280;14721;42.668;23.386;2022-09-27T14:12:59;93918.25;;;23.77;68.55
27210;BME280;14721;42.668;23.386;2022-09-27T14:15:30;93892.50;;;23.73;68.56
27210;BME280;14721;42.668;23.386;2022-09-27T14:17:57;93903.09;;;23.81;68.01
27210;BME280;14721;42.668;23.386;2022-09-27T14:20:31;93900.28;;;23.87;68.24
27210;BME280;14721;42.668;23.386;2022-09-27T14:23:01;93893.25;;;23.80;68.43
27210;BME280;14721;42.668;23.386;2022-09-27T14:25:28;93888.50;;;23.33;68.96
27210;BME280;14721;42.668;23.386;2022-09-27T14:27:54;93899.34;;;22.97;70.46
27210;BME280;14721;42.668;23.386;2022-09-27T14:30:24;93890.00;;;22.55;71.92
27210;BME280;14721;42.668;23.386;2022-09-27T14:32:55;93910.56;;;22.45;73.05
27210;BME280;14721;42.668;23.386;2022-09-27T14:35:30;93903.59;;;22.24;73.96
27210;BME280;14721;42.668;23.386;2022-09-27T14:38:20;93882.81;;;21.98;74.82
27210;BME280;14721;42.668;23.386;2022-09-27T14:43:20;93891.09;;;21.66;76.79
27210;BME280;14721;42.668;23.386;2022-09-27T14:45:47;93903.22;;;21.63;77.85
27210;BME280;14721;42.668;23.386;2022-09-27T14:48:32;93895.31;;;21.42;78.97
27210;BME280;14721;42.668;23.386;2022-09-27T14:51:03;93885.56;;;21.22;79.88
27210;BME280;14721;42.668;23.386;2022-09-27T14:53:33;93901.25;;;21.00;80.38
27210;BME280;14721;42.668;23.386;2022-09-27T14:56:01;93906.88;;;20.79;81.26
27210;BME280;14721;42.668;23.386;2022-09-27T14:58:29;93886.03;;;20.67;82.51
27210;BME280;14721;42.668;23.386;2022-09-27T15:00:55;93903.16;;;20.61;83.27
27210;BME280;14721;42.668;23.386;2022-09-27T15:03:29;93914.22;;;20.59;83.87
27210;BME280;14721;42.668;23.386;2022-09-27T15:05:58;93905.66;;;20.62;84.28
27210;BME280;14721;42.668;23.386;2022-09-27T15:08:28;93883.31;;;20.60;84.18
27210;BME280;14721;42.668;23.386;2022-09-27T15:11:02;93898.97;;;20.52;84.46
27210;BME280;14721;42.668;23.386;2022-09-27T15:13:32;93920.66;;;20.38;84.47
27210;BME280;14721;42.668;23.386;2022-09-27T15:16:15;93970.56;;;20.51;85.31
27210;BME280;14721;42.668;23.386;2022-09-27T15:18:45;93994.13;;;20.57;85.85
27210;BME280;14721;42.668;23.386;2022-09-27T15:21:28;94002.88;;;20.39;88.60
27210;BME280;14721;42.668;23.386;2022-09-27T15:23:55;93993.09;;;19.57;87.98
27210;BME280;14721;42.668;23.386;2022-09-27T15:27:20;94048.09;;;18.81;88.06
27210;BME280;14721;42.668;23.386;2022-09-27T15:29:33;94077.09;;;18.16;89.15
27210;BME280;14721;42.668;23.386;2022-09-27T15:32:06;94050.41;;;17.48;92.36
27210;BME280;14721;42.668;23.386;2022-09-27T15:34:38;94043.88;;;16.91;94.70
27210;BME280;14721;42.668;23.386;2022-09-27T15:37:05;94062.41;;;16.71;98.66
27210;BME280;14721;42.668;23.386;2022-09-27T15:39:32;94031.31;;;16.61;100.00
27210;BME280;14721;42.668;23.386;2022-09-27T15:52:53;94052.28;;;15.98;100.00
27210;BME280;14721;42.668;23.386;2022-09-27T15:55:25;94031.00;;;15.80;100.00
27210;BME280;14721;42.668;23.386;2022-09-27T15:58:01;94020.44;;;15.63;100.00
27210;BME280;14721;42.668;23.386;2022-09-27T16:00:28;94042.50;;;15.58;100.00
27210;BME280;14721;42.668;23.386;2022-09-27T16:02:54;94065.75;;;15.59;100.00
27210;BME280;14721;42.668;23.386;2022-09-27T16:05:20;94052.06;;;15.69;100.00